METAR Data
IDs: Format: Raw Decoded Include TAF

Data at: 1738 UTC 21 Sep 2018

KGGG 211719Z 19006KT 8SM TS FEW018 SCT050 BKN100 27/24 A3000 RMK AO2 LTG DSNT E RAE11 TSB19 P0004 T02720244
KGGG 211712Z 19004KT 8SM FEW018 SCT050 BKN100 26/24 A3000 RMK AO2 LTG DSNT E RAE11 P0004 T02610244
KGGG 211653Z 19012G20KT 6SM RA BR BKN018 BKN070 26/25 A3000 RMK AO2 LTG DSNT SE RAB01E10B38 SLP152 P0002 T02610250
KGGG 211553Z 15009KT 10SM BKN013 29/26 A3001 RMK AO2 SLP156 T02890256
KGGG 211453Z 14008KT 10SM BKN009 27/26 A3001 RMK AO2 CIG 008V014 SLP154 T02720256 51008
KGGG 211439Z 14006KT 10SM BKN009 OVC110 27/26 A3000 RMK AO2 T02670256
KGGG 211353Z COR 13006KT 10SM FEW017 OVC110 26/26 A3000 RMK AO2 SLP152 T02610256
KGGG 211253Z 14006KT 10SM OVC110 25/25 A3000 RMK AO2 SLP150 T02500250
KGGG 211153Z 14004KT 10SM BKN120 25/25 A2998 RMK AO2 RAB04E26 SLP146 P0000 60000 T02500250 10256 20244 52007
KGGG 211053Z AUTO 15004KT 10SM BKN120 24/24 A2998 RMK AO2 SLP143 T02440244
KGGG 210953Z AUTO 17004KT 10SM BKN110 25/24 A2997 RMK AO2 SLP140 T02500244
KGGG 210853Z AUTO 19005KT 10SM BKN120 25/24 A2996 RMK AO2 SLP137 T02500244 55001
KGGG 210753Z AUTO 17006KT 10SM CLR 25/24 A2996 RMK AO2 SLP137 T02500239
KGGG 210653Z AUTO 18006KT 10SM CLR 25/24 A2996 RMK AO2 SLP138 T02500239
KGGG 210553Z AUTO 19005KT 10SM CLR 26/24 A2997 RMK AO2 SLP139 60000 T02560239 10289 20250 403390217 58001
KGGG 210453Z AUTO 18005KT 10SM CLR 26/24 A2997 RMK AO2 SLP142 T02560239
KGGG 210353Z AUTO 19006KT 10SM CLR 26/24 A2997 RMK AO2 RAE02 SLP141 P0000 T02610239
KGGG 210253Z AUTO 19007KT 10SM -RA FEW049 FEW080 SCT100 27/23 A2997 RMK AO2 RAB50 SLP140 P0000 60000 T02720233 53022
KGGG 210153Z 20004KT 10SM CLR 27/23 A2995 RMK AO2 SLP135 T02720233
KGGG 210053Z 19005KT 10SM CLR 28/23 A2991 RMK AO2 SLP122 T02780228
KGGG 202353Z 17007KT 10SM CLR 29/23 A2990 RMK AO2 SLP119 T02890228 10339 20289 56007
KGGG 202253Z 17008KT 10SM BKN040 31/22 A2990 RMK AO2 SLP119 T03110222
KGGG 202153Z COR 13008KT 10SM BKN055 32/22 A2991 RMK AO2 SLP120 T03170222
KGGG 202053Z 13010KT 10SM BKN050 33/23 A2992 RMK AO2 SLP125 T03330228 56021
KGGG 201953Z 17007KT 10SM BKN047 33/23 A2994 RMK AO2 SLP130 T03330228
KGGG 201853Z COR 19008KT 10SM SCT046 33/22 A2996 RMK AO2 SLP139 T03280222
KGGG 201753Z 15009KT 10SM CLR 32/23 A2999 RMK AO2 SLP147 T03170228 10317 20222 58007
KGGG 201653Z 16006KT 10SM FEW030 30/24 A3001 RMK AO2 SLP155 T03000239
KGGG 201553Z COR 19004KT 10SM FEW030 29/24 A3001 RMK AO2 SLP156 T02890244
KGGG 201453Z 22004KT 10SM CLR 28/24 A3001 RMK AO2 SLP155 T02780244 51015
KGGG 201353Z VRB03KT 10SM BR CLR 25/24 A2999 RMK AO2 SLP150 T02500239
KGGG 201253Z 15003KT 4SM BR CLR 23/23 A2998 RMK AO2 SLP146 T02280228
KGGG 201153Z 00000KT 4SM BR CLR 22/22 A2996 RMK AO2 SLP139 70059 T02220222 10228 20217 53006
KGGG 201053Z 12003KT 10SM CLR 23/23 A2995 RMK AO2 SLP135 T02280228
KGGG 200953Z AUTO 00000KT 10SM CLR 22/22 A2995 RMK AO2 SLP133 T02220222
KGGG 200853Z AUTO 00000KT 10SM CLR 22/22 A2995 RMK AO2 SLP132 T02220222 58001
KGGG 200753Z AUTO 08004KT 10SM CLR 22/22 A2995 RMK AO2 SLP134 T02220222
KGGG 200653Z AUTO 00000KT 10SM CLR 22/22 A2995 RMK AO2 SLP134 T02220222
KGGG 200553Z AUTO 29005KT 10SM CLR 22/22 A2995 RMK AO2 SLP133 60058 T02220222 10322 20222 403560222 58001